Time;durP1;ratioP1;P1;durP2;ratioP2;P2;SDS_P1;SDS_P2;PMS_P1;PMS_P2;Temp;Humidity;BMP_temperature;BMP_pressure;BME280_temperature;BME280_humidity;BME280_pressure;Samples;Min_cycle;Max_cycle;Signal;HPM_P1;HPM_P2
2021/04/01 02:46:04;;;;;;;7.28;5.63;;;10.10;95.30;;;;;;5481245;23;89521;-91
2021/04/01 02:48:30;;;;;;;12.77;7.10;;;10.00;95.50;;;;;;4810382;29;88926;-90
2021/04/01 02:51:01;;;;;;;18.15;10.45;;;10.10;96.30;;;;;;4798471;29;86099;-90
2021/04/01 02:53:27;;;;;;;17.95;10.32;;;;;;;;;;4798091;29;86435;-90
2021/04/01 02:55:53;;;;;;;15.77;9.25;;;;;;;;;;4816962;29;87824;-90
2021/04/01 02:58:19;;;;;;;14.30;9.00;;;10.00;99.30;;;;;;4820768;29;90070;-89
2021/04/01 03:00:45;;;;;;;22.55;11.45;;;10.00;99.90;;;;;;4819728;29;86356;-90
2021/04/01 03:05:37;;;;;;;20.45;12.38;;;9.90;99.90;;;;;;4828232;29;86573;-90
2021/04/01 03:08:04;;;;;;;15.77;10.65;;;9.80;99.90;;;;;;4798921;29;89251;-90
2021/04/01 03:10:30;;;;;;;20.77;12.30;;;;;;;;;;4799012;29;86226;-90
2021/04/01 03:12:55;;;;;;;17.30;12.32;;;9.70;99.90;;;;;;4808089;29;87378;-90
2021/04/01 03:15:21;;;;;;;26.73;15.05;;;9.70;99.90;;;;;;4830265;29;92118;-90
2021/04/01 03:17:48;;;;;;;23.50;13.05;;;9.60;99.90;;;;;;4832303;29;87962;-90
2021/04/01 03:20:14;;;;;;;24.77;13.80;;;9.60;99.90;;;;;;4816268;29;86963;-89
2021/04/01 03:22:40;;;;;;;24.40;13.00;;;;;;;;;;4811329;29;86998;-88
2021/04/01 03:25:10;;;;;;;20.70;13.15;;;9.50;99.90;;;;;;4835568;29;90684;-90
2021/04/01 03:27:46;;;;;;;18.77;12.13;;;9.40;99.90;;;;;;4813591;29;87089;-88
2021/04/01 03:30:14;;;;;;;22.40;12.23;;;9.50;99.90;;;;;;4831583;29;86274;-88
2021/04/01 03:32:47;;;;;;;20.35;11.73;;;9.40;99.90;;;;;;4831492;29;86912;-90
2021/04/01 03:35:19;;;;;;;19.95;11.88;;;9.40;99.90;;;;;;4830038;29;88296;-89
2021/04/01 03:37:47;;;;;;;19.20;11.73;;;9.40;99.90;;;;;;4790249;29;89073;-89
2021/04/01 03:40:13;;;;;;;22.55;11.60;;;9.40;99.90;;;;;;4832403;29;86962;-87
2021/04/01 03:42:44;;;;;;;19.38;11.95;;;9.40;99.90;;;;;;4813462;29;86873;-88
2021/04/01 03:45:10;;;;;;;;;;;9.40;99.90;;;;;;4830992;29;88614;-87
2021/04/01 03:47:37;;;;;;;17.13;10.90;;;9.40;99.90;;;;;;4812552;29;87193;-87
2021/04/01 03:50:06;;;;;;;19.17;11.23;;;9.40;99.90;;;;;;4812479;29;87007;-88
2021/04/01 03:52:31;;;;;;;22.48;12.20;;;9.40;99.90;;;;;;4813145;29;86571;-87
2021/04/01 03:55:43;;;;;;;18.80;11.88;;;9.30;99.90;;;;;;4813875;29;87288;-88
2021/04/01 03:57:44;;;;;;;20.95;12.18;;;9.30;99.90;;;;;;4805175;29;87082;-87
2021/04/01 04:00:17;;;;;;;19.10;12.07;;;9.30;99.90;;;;;;4816774;29;86968;-87
2021/04/01 04:02:57;;;;;;;17.40;11.65;;;9.30;99.90;;;;;;4812971;29;87954;-87
2021/04/01 04:15:29;;;;;;;18.27;11.25;;;9.10;99.90;;;;;;4831459;29;88295;-88
2021/04/01 04:17:57;;;;;;;19.05;11.10;;;9.10;99.90;;;;;;4833703;29;87872;-89
2021/04/01 04:20:22;;;;;;;19.08;10.30;;;9.10;99.90;;;;;;4830637;29;86299;-88
2021/04/01 04:22:50;;;;;;;20.65;11.48;;;9.10;99.90;;;;;;4833538;29;86819;-88
2021/04/01 04:25:18;;;;;;;19.60;11.15;;;9.10;99.90;;;;;;4824841;29;89249;-88
2021/04/01 04:28:11;;;;;;;18.17;10.90;;;9.10;99.90;;;;;;4816246;29;90188;-88
2021/04/01 04:30:37;;;;;;;23.08;11.73;;;;;;;;;;4821964;29;86870;-88
2021/04/01 04:33:03;;;;;;;20.25;11.85;;;9.00;99.90;;;;;;4812408;29;87066;-87
2021/04/01 04:35:35;;;;;;;19.58;11.55;;;8.90;99.90;;;;;;4833461;29;89626;-87
2021/04/01 04:38:01;;;;;;;21.45;11.07;;;8.90;99.90;;;;;;4826491;29;90650;-88
2021/04/01 04:40:28;;;;;;;16.40;10.00;;;8.90;99.90;;;;;;4834038;29;86967;-88
2021/04/01 04:42:54;;;;;;;17.83;10.13;;;8.90;99.90;;;;;;4833765;29;86972;-88
2021/04/01 04:45:20;;;;;;;19.70;9.75;;;8.90;99.90;;;;;;4818376;29;87548;-88
2021/04/01 04:47:45;;;;;;;18.00;9.80;;;8.90;99.90;;;;;;4834497;29;87830;-88
2021/04/01 04:50:12;;;;;;;16.73;10.27;;;8.80;99.90;;;;;;4833366;29;86843;-88
2021/04/01 04:52:40;;;;;;;15.40;9.95;;;8.80;99.90;;;;;;4831006;29;87711;-88
2021/04/01 04:55:08;;;;;;;17.65;9.98;;;8.80;99.90;;;;;;4816690;29;88171;-88
2021/04/01 04:57:42;;;;;;;18.13;10.65;;;8.80;99.90;;;;;;4816276;29;88433;-87
2021/04/01 05:05:25;;;;;;;20.83;11.07;;;8.70;99.90;;;;;;4830580;29;86933;-88
2021/04/01 05:07:52;;;;;;;22.05;10.80;;;8.70;99.90;;;;;;4832957;29;87411;-88
2021/04/01 05:10:18;;;;;;;16.25;10.25;;;8.70;99.90;;;;;;4816208;29;86254;-88
2021/04/01 05:12:48;;;;;;;17.15;10.88;;;8.70;99.90;;;;;;4833552;29;86941;-87
2021/04/01 05:15:14;;;;;;;18.90;10.33;;;8.70;99.90;;;;;;4814172;29;88846;-89
2021/04/01 05:17:39;;;;;;;18.48;11.35;;;8.70;99.90;;;;;;4812510;29;89984;-89
2021/04/01 05:20:07;;;;;;;19.45;11.10;;;8.70;99.90;;;;;;4807723;29;86989;-89
2021/04/01 05:22:58;;;;;;;18.92;12.85;;;8.70;99.90;;;;;;4809703;29;87127;-90
2021/04/01 05:25:27;;;;;;;16.15;10.73;;;8.70;99.90;;;;;;4815611;29;86917;-91
2021/04/01 05:27:57;;;;;;;21.75;12.18;;;;;;;;;;4824374;29;89108;-90
2021/04/01 05:30:23;;;;;;;19.88;11.45;;;8.70;99.90;;;;;;4820843;29;86962;-89
2021/04/01 05:32:49;;;;;;;19.38;12.07;;;8.80;99.90;;;;;;4832473;29;87009;-89
2021/04/01 05:35:16;;;;;;;16.42;11.48;;;8.70;99.90;;;;;;4816357;29;87719;-90
2021/04/01 05:37:42;;;;;;;18.05;11.18;;;8.70;99.90;;;;;;4820475;29;88253;-92
2021/04/01 05:40:10;;;;;;;21.85;11.50;;;8.80;99.90;;;;;;4849435;29;86196;-89
2021/04/01 05:42:40;;;;;;;20.40;11.95;;;8.90;99.90;;;;;;4854153;29;87226;-90
2021/04/01 05:48:17;;;;;;;18.17;10.00;;;9.00;99.90;;;;;;4773276;29;88542;-91
2021/04/01 06:02:39;;;;;;;20.30;10.57;;;9.50;99.90;;;;;;4829750;29;86128;-89
2021/04/01 06:05:09;;;;;;;17.77;11.30;;;9.60;99.90;;;;;;4819658;29;87073;-90
2021/04/01 06:07:41;;;;;;;15.55;9.48;;;9.80;99.90;;;;;;4832591;29;87151;-90
2021/04/01 06:10:09;;;;;;;14.20;8.80;;;9.90;99.90;;;;;;4808317;29;88040;-89
2021/04/01 06:12:36;;;;;;;13.38;8.23;;;10.10;99.90;;;;;;4808546;29;86859;-90
2021/04/01 06:15:11;;;;;;;16.70;10.50;;;10.30;99.90;;;;;;4809722;29;87132;-91
2021/04/01 06:17:45;;;;;;;21.10;11.75;;;10.40;99.90;;;;;;4809553;29;89453;-88
2021/04/01 06:20:11;;;;;;;18.67;11.20;;;10.60;99.90;;;;;;4831201;29;87322;-88
2021/04/01 06:22:41;;;;;;;17.40;10.40;;;10.80;99.90;;;;;;4808875;29;87072;-88
2021/04/01 06:25:15;;;;;;;19.60;10.60;;;10.90;99.90;;;;;;4832208;29;86497;-88
2021/04/01 06:30:25;;;;;;;15.10;9.38;;;11.40;99.90;;;;;;4827345;29;86816;-89
2021/04/01 06:33:04;;;;;;;11.45;9.23;;;11.70;99.90;;;;;;4831990;29;86997;-86
2021/04/01 06:35:38;;;;;;;19.35;11.40;;;11.90;99.90;;;;;;4823703;29;87946;-88
2021/04/01 06:40:47;;;;;;;15.38;9.18;;;13.40;97.30;;;;;;4819600;29;87337;-88
2021/04/01 06:43:23;;;;;;;13.50;9.38;;;14.90;95.30;;;;;;4833931;29;86842;-88
2021/04/01 06:45:58;;;;;;;11.27;8.50;;;16.70;88.30;;;;;;4826695;29;86795;-88
2021/04/01 06:48:37;;;;;;;14.18;7.78;;;18.10;76.50;;;;;;4854602;29;89211;-87
2021/04/01 06:51:09;;;;;;;9.60;7.97;;;19.40;69.60;;;;;;4854555;28;87550;-90
2021/04/01 06:53:43;;;;;;;14.48;8.18;;;20.80;64.10;;;;;;4854876;28;85385;-87
2021/04/01 06:58:51;;;;;;;11.52;8.27;;;23.00;53.40;;;;;;4851130;29;87302;-87
2021/04/01 07:01:40;;;;;;;13.52;9.07;;;23.90;49.90;;;;;;4839359;29;87472;-87
2021/04/01 07:04:08;;;;;;;14.05;8.90;;;24.90;47.50;;;;;;4830629;29;86957;-87
2021/04/01 07:06:38;;;;;;;11.23;7.80;;;25.70;45.60;;;;;;4826322;29;86972;-87
2021/04/01 07:09:41;;;;;;;;;;;26.40;43.60;;;;;;4829418;29;87771;-90
2021/04/01 07:12:15;;;;;;;11.50;7.93;;;27.00;39.80;;;;;;4815017;29;90278;-89
2021/04/01 07:14:43;;;;;;;11.30;6.72;;;27.80;40.20;;;;;;4830056;29;87668;-87
2021/04/01 07:17:21;;;;;;;10.73;6.05;;;28.20;38.60;;;;;;4824095;29;87044;-87
2021/04/01 07:47:37;;;;;;;16.15;9.52;;;33.50;31.60;;;;;;4826219;29;86462;-88
2021/04/01 07:50:23;;;;;;;13.20;9.25;;;33.70;31.20;;;;;;4824472;29;86951;-88
2021/04/01 07:52:58;;;;;;;12.98;9.10;;;34.40;31.40;;;;;;4829958;29;87753;-88
2021/04/01 07:55:34;;;;;;;11.63;10.18;;;34.80;29.50;;;;;;4827106;29;88140;-87
2021/04/01 08:01:09;;;;;;;16.45;9.63;;;35.90;29.50;;;;;;4828748;29;87207;-87
2021/04/01 08:06:04;;;;;;;13.90;9.57;;;36.70;29.10;;;;;;4825943;29;87061;-87
2021/04/01 08:08:44;;;;;;;10.80;9.05;;;37.20;28.60;;;;;;4831594;29;86883;-87
2021/04/01 08:11:11;;;;;;;11.32;8.38;;;37.70;27.80;;;;;;4814109;29;87344;-87
2021/04/01 08:13:46;;;;;;;10.18;8.38;;;38.30;28.20;;;;;;4830222;29;86329;-88
2021/04/01 08:16:16;;;;;;;10.18;6.80;;;38.80;27.10;;;;;;4830847;29;86990;-89
2021/04/01 08:18:45;;;;;;;;;;;39.30;27.20;;;;;;4831329;29;87085;-86
2021/04/01 08:21:12;;;;;;;9.75;8.15;;;39.60;25.30;;;;;;4827619;29;88009;-86
2021/04/01 08:23:55;;;;;;;13.70;8.70;;;39.90;26.30;;;;;;4816045;29;87895;-87
2021/04/01 08:36:52;;;;;;;10.30;8.50;;;41.60;26.00;;;;;;4825503;29;86955;-87
2021/04/01 08:39:21;;;;;;;10.82;7.95;;;42.00;26.20;;;;;;4821140;29;86744;-87
2021/04/01 08:41:49;;;;;;;10.30;8.43;;;42.00;25.70;;;;;;4834125;29;87070;-87
2021/04/01 08:44:34;;;;;;;8.47;7.67;;;42.20;25.50;;;;;;4829680;29;87726;-87
2021/04/01 08:47:21;;;;;;;10.25;7.25;;;42.70;24.70;;;;;;4822732;29;88190;-87
2021/04/01 08:50:27;;;;;;;10.95;7.57;;;42.10;23.90;;;;;;4817599;29;86978;-87
2021/04/01 08:53:14;;;;;;;8.93;7.82;;;42.20;24.10;;;;;;4825881;29;87001;-88
2021/04/01 08:56:27;;;;;;;9.35;8.43;;;42.60;24.50;;;;;;4829780;29;87283;-87
2021/04/01 08:59:10;;;;;;;9.50;8.07;;;42.60;24.50;;;;;;4828669;29;87088;-88
2021/04/01 09:01:40;;;;;;;10.45;8.00;;;42.90;24.40;;;;;;4811566;29;86965;-89
2021/04/01 09:04:06;;;;;;;10.55;7.80;;;43.30;24.30;;;;;;4828404;29;86220;-88
2021/04/01 09:06:38;;;;;;;9.95;8.23;;;43.70;24.20;;;;;;4831252;29;87275;-88
2021/04/01 09:09:10;;;;;;;8.73;7.55;;;43.90;23.80;;;;;;4821830;29;87372;-88
2021/04/01 09:11:51;;;;;;;9.90;8.13;;;44.10;23.70;;;;;;4830141;29;86978;-88
2021/04/01 09:14:31;;;;;;;9.80;7.60;;;43.70;23.60;;;;;;4810297;29;88706;-89
2021/04/01 09:17:12;;;;;;;8.13;7.30;;;43.90;23.30;;;;;;4826741;29;87317;-88
2021/04/01 09:19:40;;;;;;;8.85;7.78;;;44.20;23.60;;;;;;4819868;29;89483;-88
2021/04/01 09:22:22;;;;;;;9.80;8.33;;;44.20;23.30;;;;;;4826557;29;86913;-89
2021/04/01 09:25:07;;;;;;;9.40;8.40;;;44.40;23.00;;;;;;4825871;29;87052;-88
2021/04/01 09:27:48;;;;;;;10.45;7.68;;;44.60;23.40;;;;;;4826571;29;88369;-88
2021/04/01 09:30:15;;;;;;;8.10;7.30;;;44.40;22.80;;;;;;4821265;29;87636;-88
2021/04/01 09:32:43;;;;;;;9.00;7.72;;;44.70;23.10;;;;;;4829327;29;86571;-88
2021/04/01 09:35:11;;;;;;;8.55;7.60;;;44.90;22.90;;;;;;4817743;29;87192;-86
2021/04/01 09:37:51;;;;;;;10.23;7.22;;;45.20;22.70;;;;;;4831827;29;87352;-86
2021/04/01 09:40:17;;;;;;;8.02;6.03;;;44.90;22.00;;;;;;4831720;29;87912;-88
2021/04/01 09:42:46;;;;;;;9.40;7.60;;;44.90;22.60;;;;;;4830082;29;86968;-87
2021/04/01 09:45:27;;;;;;;9.90;7.77;;;44.90;22.80;;;;;;4843147;29;86923;-87
2021/04/01 09:48:01;;;;;;;6.97;6.43;;;44.70;22.70;;;;;;4851862;29;87999;-86
2021/04/01 09:50:41;;;;;;;10.82;7.43;;;45.00;22.70;;;;;;4829577;29;86976;-87
2021/04/01 09:53:14;;;;;;;8.93;7.78;;;45.10;22.50;;;;;;4825679;29;87061;-87
2021/04/01 09:55:48;;;;;;;11.00;8.07;;;44.90;22.50;;;;;;4830426;29;86272;-88
2021/04/01 09:58:28;;;;;;;11.00;8.57;;;45.30;22.50;;;;;;4836361;29;86363;-88
2021/04/01 10:03:34;;;;;;;9.00;8.10;;;45.70;22.40;;;;;;4808547;29;87421;-88
2021/04/01 10:06:00;;;;;;;9.70;8.77;;;46.00;22.50;;;;;;4804304;29;87823;-90
2021/04/01 10:08:31;;;;;;;9.45;8.45;;;46.30;22.70;;;;;;4814423;29;87100;-90
2021/04/01 10:11:15;;;;;;;10.32;8.90;;;46.70;22.70;;;;;;4814907;29;87112;-91
2021/04/01 10:13:44;;;;;;;11.45;8.90;;;46.60;22.10;;;;;;4808006;29;86958;-89
2021/04/01 10:16:23;;;;;;;10.20;9.18;;;46.10;21.90;;;;;;4813689;29;86886;-90
2021/04/01 10:18:50;;;;;;;20.48;13.55;;;45.30;21.90;;;;;;4806045;29;87081;-90
2021/04/01 10:21:16;;;;;;;10.07;8.70;;;44.70;22.10;;;;;;4812591;29;88092;-90
2021/04/01 10:23:53;;;;;;;21.60;15.95;;;44.90;22.60;;;;;;4810712;29;86322;-90
2021/04/01 10:26:30;;;;;;;9.70;8.55;;;45.50;22.60;;;;;;4809299;29;87048;-89
2021/04/01 10:28:59;;;;;;;9.40;8.43;;;46.00;22.50;;;;;;4821726;29;87730;-87
2021/04/01 10:31:26;;;;;;;11.63;9.30;;;46.60;22.10;;;;;;4806451;29;88047;-89
2021/04/01 10:34:16;;;;;;;9.52;8.55;;;47.20;22.10;;;;;;4811617;29;86881;-90
2021/04/01 10:36:43;;;;;;;9.70;8.80;;;47.70;21.80;;;;;;4811294;29;87032;-89
2021/04/01 10:39:12;;;;;;;9.20;8.30;;;47.40;22.10;;;;;;4813566;29;88716;-90
2021/04/01 10:41:47;;;;;;;11.20;8.50;;;47.70;22.10;;;;;;4814332;29;88001;-90
2021/04/01 10:44:15;;;;;;;12.85;8.55;;;47.80;21.80;;;;;;4812911;29;87353;-89
2021/04/01 10:46:46;;;;;;;10.10;9.10;;;48.10;21.60;;;;;;4886635;23;2199078;-90
2021/04/01 10:49:16;;;;;;;9.82;8.93;;;48.10;21.90;;;;;;4822805;29;88786;-90
2021/04/01 10:52:10;;;;;;;13.25;8.75;;;48.30;21.70;;;;;;4861344;29;87072;-90
2021/04/01 10:54:45;;;;;;;10.40;9.30;;;48.40;21.20;;;;;;4854520;29;87120;-88
2021/04/01 10:57:24;;;;;;;14.98;12.48;;;48.60;21.40;;;;;;4840724;29;88102;-92
2021/04/01 10:59:50;;;;;;;14.43;11.07;;;48.50;21.40;;;;;;4839004;29;89206;-88
2021/04/01 11:02:20;;;;;;;12.05;10.77;;;48.60;21.50;;;;;;4858686;29;87399;-89
2021/04/01 11:05:19;;;;;;;10.30;9.20;;;48.70;21.50;;;;;;4857995;29;87070;-90
2021/04/01 11:07:51;;;;;;;10.70;9.20;;;48.60;21.50;;;;;;4860568;29;87092;-90
2021/04/01 11:10:26;;;;;;;10.52;9.43;;;48.80;21.70;;;;;;4856360;29;87385;-90
2021/04/01 11:13:00;;;;;;;10.15;9.15;;;49.00;21.60;;;;;;4857156;29;88348;-89
2021/04/01 11:15:27;;;;;;;11.43;9.35;;;49.30;21.90;;;;;;4860577;29;86315;-89
2021/04/01 11:18:15;;;;;;;9.95;9.05;;;49.10;21.70;;;;;;4849712;29;87125;-89
2021/04/01 11:20:42;;;;;;;9.85;8.98;;;49.20;22.00;;;;;;4854370;29;87272;-89
2021/04/01 11:23:37;;;;;;;9.98;8.98;;;49.00;22.10;;;;;;4852817;29;87859;-87
2021/04/01 11:26:04;;;;;;;10.00;9.00;;;49.10;21.50;;;;;;4834704;29;87072;-88
2021/04/01 11:28:36;;;;;;;10.48;9.18;;;49.00;21.80;;;;;;4848863;29;87223;-87
2021/04/01 11:31:04;;;;;;;9.80;8.80;;;49.00;21.70;;;;;;4859079;29;86623;-87
2021/04/01 11:33:30;;;;;;;10.20;9.18;;;49.10;22.00;;;;;;4833736;29;89395;-88
2021/04/01 11:36:10;;;;;;;10.15;9.10;;;48.80;21.90;;;;;;4844889;28;87667;-88
2021/04/01 11:38:43;;;;;;;10.75;8.80;;;48.90;21.80;;;;;;4852030;29;87858;-88
2021/04/01 11:41:18;;;;;;;9.05;8.25;;;48.80;21.40;;;;;;4846275;29;86326;-89
2021/04/01 11:43:52;;;;;;;8.95;8.15;;;48.80;21.70;;;;;;4858549;29;88468;-89
2021/04/01 11:46:22;;;;;;;9.15;8.00;;;49.20;21.40;;;;;;4840109;29;87746;-89
2021/04/01 11:48:50;;;;;;;11.32;7.78;;;49.00;21.00;;;;;;4833672;29;88146;-89
2021/04/01 11:51:18;;;;;;;8.63;7.82;;;49.20;21.10;;;;;;4839105;29;90773;-89
2021/04/01 11:53:44;;;;;;;7.80;7.07;;;49.00;20.90;;;;;;4839629;29;87431;-88
2021/04/01 11:56:10;;;;;;;8.60;7.78;;;48.90;20.50;;;;;;4842317;29;86905;-89
2021/04/01 11:58:36;;;;;;;7.80;6.95;;;48.80;20.80;;;;;;4842961;29;87005;-89
2021/04/01 12:01:26;;;;;;;7.68;7.07;;;48.70;21.00;;;;;;4840130;29;88397;-88
2021/04/01 12:04:04;;;;;;;9.85;7.40;;;48.80;20.80;;;;;;4831590;29;87077;-89
2021/04/01 12:06:31;;;;;;;7.70;7.10;;;48.70;20.90;;;;;;4829538;29;86438;-89
2021/04/01 12:08:57;;;;;;;9.10;8.00;;;48.50;21.00;;;;;;4831881;29;86564;-88
2021/04/01 12:11:27;;;;;;;7.70;7.00;;;48.40;21.50;;;;;;4830867;29;87657;-89
2021/04/01 12:14:16;;;;;;;8.80;7.18;;;48.20;21.10;;;;;;4827733;29;91779;-89
2021/04/01 12:16:43;;;;;;;7.60;6.85;;;48.10;21.20;;;;;;4833546;29;86960;-89
2021/04/01 12:19:12;;;;;;;9.05;7.00;;;47.80;21.00;;;;;;4841068;29;87104;-90
2021/04/01 12:21:39;;;;;;;9.25;7.05;;;47.50;21.00;;;;;;4834883;29;87757;-90
2021/04/01 12:24:06;;;;;;;8.60;7.65;;;47.10;21.60;;;;;;4832702;29;87124;-90
2021/04/01 12:26:53;;;;;;;8.23;7.30;;;47.00;21.30;;;;;;4838261;29;86947;-88
2021/04/01 12:29:19;;;;;;;8.50;7.47;;;46.60;21.30;;;;;;4853189;29;87076;-89
2021/04/01 12:31:54;;;;;;;7.75;7.00;;;45.90;21.80;;;;;;4855550;29;86882;-88
2021/04/01 12:34:31;;;;;;;9.15;7.10;;;45.50;21.50;;;;;;4854497;29;86760;-88
2021/04/01 12:37:02;;;;;;;10.45;6.63;;;44.60;21.70;;;;;;4850959;29;86879;-87
2021/04/01 12:39:38;;;;;;;8.15;6.70;;;43.90;22.00;;;;;;4852910;29;87838;-87
2021/04/01 12:42:04;;;;;;;7.80;7.10;;;42.80;22.30;;;;;;4838326;29;87037;-89
2021/04/01 12:44:42;;;;;;;8.15;6.50;;;42.20;22.60;;;;;;4859910;29;87493;-89
2021/04/01 12:47:08;;;;;;;7.40;6.35;;;41.70;22.70;;;;;;4857087;29;86495;-89
2021/04/01 12:49:37;;;;;;;6.90;5.75;;;41.10;22.90;;;;;;4845232;29;87047;-89
2021/04/01 12:52:04;;;;;;;;;;;40.70;23.00;;;;;;4834719;29;88360;-89
2021/04/01 12:54:36;;;;;;;8.55;6.57;;;40.10;23.30;;;;;;4839238;29;87010;-89
2021/04/01 12:57:06;;;;;;;8.45;5.60;;;39.80;23.40;;;;;;4836178;29;86226;-88
2021/04/01 12:59:39;;;;;;;6.95;6.18;;;39.70;23.80;;;;;;4833913;29;86801;-89
2021/04/01 13:02:11;;;;;;;7.10;6.10;;;39.60;23.50;;;;;;4843146;29;90515;-89
2021/04/01 13:04:38;;;;;;;7.80;6.03;;;39.50;24.20;;;;;;4849560;29;88013;-88
2021/04/01 13:07:25;;;;;;;6.95;6.25;;;39.70;24.10;;;;;;4842939;29;87246;-89
2021/04/01 13:10:11;;;;;;;6.53;5.90;;;39.70;23.90;;;;;;4845069;29;87006;-89
2021/04/01 13:12:38;;;;;;;7.93;6.40;;;39.60;24.20;;;;;;4843575;29;87793;-89
2021/04/01 13:15:04;;;;;;;7.25;6.55;;;39.30;24.20;;;;;;4833601;29;87423;-88
2021/04/01 13:17:30;;;;;;;8.45;6.68;;;38.60;24.70;;;;;;4838844;29;86632;-89
2021/04/01 13:19:56;;;;;;;8.45;6.93;;;38.60;24.70;;;;;;4840399;29;87078;-89
2021/04/01 13:22:25;;;;;;;8.05;6.90;;;38.20;24.90;;;;;;4839199;29;86940;-89
2021/04/01 13:27:18;;;;;;;8.48;6.80;;;37.80;25.00;;;;;;4835448;29;87367;-88
2021/04/01 13:29:53;;;;;;;9.30;7.53;;;37.70;25.30;;;;;;4834862;29;88166;-88
2021/04/01 13:37:40;;;;;;;10.55;7.40;;;38.70;25.00;;;;;;4847897;29;86580;-89
2021/04/01 13:40:12;;;;;;;8.90;7.22;;;38.70;25.00;;;;;;4853473;29;86749;-88
2021/04/01 13:42:47;;;;;;;9.35;7.30;;;38.90;24.90;;;;;;4847035;29;87727;-89
2021/04/01 13:45:16;;;;;;;11.93;7.70;;;39.10;25.00;;;;;;4847577;29;89669;-89
2021/04/01 13:47:44;;;;;;;9.13;6.78;;;39.00;24.60;;;;;;4868227;29;86176;-88
2021/04/01 13:50:14;;;;;;;8.43;6.68;;;39.00;24.80;;;;;;4850611;29;86758;-88
2021/04/01 13:55:16;;;;;;;7.40;6.60;;;39.30;24.80;;;;;;4872818;28;87296;-88
2021/04/01 13:57:58;;;;;;;7.60;6.50;;;39.20;24.80;;;;;;4859538;29;86944;-88
2021/04/01 14:00:29;;;;;;;8.07;6.55;;;39.00;25.00;;;;;;4871889;28;86501;-89
2021/04/01 14:11:39;;;;;;;10.05;6.88;;;38.10;25.10;;;;;;4870806;29;86586;-88
2021/04/01 14:14:06;;;;;;;11.07;7.45;;;37.40;25.70;;;;;;4868288;29;86376;-88
2021/04/01 14:16:34;;;;;;;8.15;6.95;;;36.90;26.10;;;;;;4873482;29;87093;-88
2021/04/01 14:19:01;;;;;;;8.05;7.30;;;36.60;26.00;;;;;;4877085;29;86531;-88
2021/04/01 14:21:27;;;;;;;11.70;6.45;;;36.50;26.40;;;;;;4865714;29;87699;-88
2021/04/01 14:23:53;;;;;;;6.70;6.10;;;36.50;26.40;;;;;;4858110;29;87229;-89
2021/04/01 14:28:56;;;;;;;10.15;7.10;;;35.50;26.50;;;;;;4858387;28;87065;-88
2021/04/01 14:31:21;;;;;;;9.50;7.30;;;34.90;27.00;;;;;;4863206;29;87068;-88
2021/04/01 14:33:49;;;;;;;9.30;6.88;;;34.40;27.30;;;;;;4861926;29;87279;-88
2021/04/01 14:36:16;;;;;;;9.38;7.75;;;34.20;27.40;;;;;;4836829;29;88487;-88
2021/04/01 14:38:44;;;;;;;9.93;8.15;;;34.10;27.60;;;;;;4854064;29;86493;-88
2021/04/01 14:43:48;;;;;;;10.65;7.78;;;34.00;27.80;;;;;;4857438;29;88121;-87
2021/04/01 14:46:15;;;;;;;13.68;9.15;;;34.20;28.00;;;;;;4850812;28;88391;-87
2021/04/01 14:48:41;;;;;;;12.52;9.40;;;34.30;28.10;;;;;;4860100;29;86654;-88
2021/04/01 14:51:10;;;;;;;13.27;9.13;;;34.50;28.00;;;;;;4857272;29;87072;-88
2021/04/01 14:56:05;;;;;;;9.82;8.32;;;34.10;27.50;;;;;;4864128;29;87078;-87
2021/04/01 14:58:33;;;;;;;10.75;9.00;;;34.20;27.70;;;;;;4851442;29;87026;-87
2021/04/01 15:01:00;;;;;;;14.73;9.65;;;34.20;27.40;;;;;;4866710;29;86891;-86
2021/04/01 15:03:26;;;;;;;12.50;9.25;;;34.10;27.10;;;;;;4860591;29;87077;-87
2021/04/01 15:05:55;;;;;;;13.23;9.02;;;33.90;27.40;;;;;;4867956;29;87401;-81
2021/04/01 15:08:22;;;;;;;15.07;9.73;;;33.70;27.40;;;;;;4860068;29;86856;-88
2021/04/01 15:10:48;;;;;;;11.73;8.70;;;33.40;27.70;;;;;;4850864;29;87788;-88
2021/04/01 15:13:15;;;;;;;11.63;9.25;;;33.30;28.10;;;;;;4843827;29;89218;-87
2021/04/01 15:15:45;;;;;;;14.30;8.75;;;33.20;28.30;;;;;;4852195;29;86993;-87
2021/04/01 15:18:12;;;;;;;10.75;8.88;;;33.00;28.50;;;;;;4868424;29;86762;-87
2021/04/01 15:20:37;;;;;;;9.07;7.72;;;32.90;28.70;;;;;;4852096;29;86814;-88
2021/04/01 15:23:03;;;;;;;11.82;8.52;;;32.70;28.40;;;;;;4853341;29;88445;-85
2021/04/01 15:25:29;;;;;;;11.10;8.40;;;32.60;28.50;;;;;;4861111;29;86938;-87
2021/04/01 15:27:56;;;;;;;9.25;7.80;;;32.40;28.20;;;;;;4869836;29;85786;-86
2021/04/01 15:30:22;;;;;;;11.90;7.78;;;32.30;27.80;;;;;;4847065;29;87163;-86
2021/04/01 15:32:48;;;;;;;11.07;8.05;;;32.20;27.80;;;;;;4864658;29;88187;-87
2021/04/01 15:35:14;;;;;;;10.68;7.28;;;32.00;27.80;;;;;;4849709;29;87645;-86
2021/04/01 15:37:40;;;;;;;12.35;7.43;;;31.90;28.40;;;;;;4835349;29;87030;-85
2021/04/01 15:40:08;;;;;;;9.65;7.30;;;31.90;28.40;;;;;;4845573;29;86984;-83
2021/04/01 15:42:34;;;;;;;9.65;7.03;;;31.70;28.10;;;;;;4862391;29;88898;-87
2021/04/01 15:45:03;;;;;;;10.68;6.80;;;31.50;28.10;;;;;;4841723;29;87505;-88
2021/04/01 15:47:29;;;;;;;10.55;6.47;;;31.10;28.10;;;;;;4863485;29;87428;-86
2021/04/01 15:49:55;;;;;;;9.02;5.93;;;30.90;28.40;;;;;;4858819;29;86923;-87
2021/04/01 15:52:23;;;;;;;10.93;6.80;;;30.70;28.00;;;;;;4838168;29;88653;-88
2021/04/01 15:54:53;;;;;;;8.48;6.50;;;30.50;27.70;;;;;;4856001;29;87090;-88
2021/04/01 15:57:19;;;;;;;8.93;6.82;;;30.10;28.10;;;;;;4850178;29;87020;-88
2021/04/01 15:59:45;;;;;;;10.82;6.90;;;29.80;28.30;;;;;;4855880;29;87881;-88
2021/04/01 16:02:12;;;;;;;9.32;6.00;;;29.60;28.70;;;;;;4838532;29;86926;-88
2021/04/01 16:04:37;;;;;;;12.82;7.10;;;29.50;29.00;;;;;;4868248;29;89282;-88
2021/04/01 16:07:03;;;;;;;8.77;6.53;;;29.30;29.10;;;;;;4860108;29;86885;-89
2021/04/01 16:09:32;;;;;;;9.98;6.55;;;29.10;29.10;;;;;;4842568;29;86798;-89
2021/04/01 16:11:58;;;;;;;8.38;6.35;;;28.90;29.10;;;;;;4850352;29;88612;-88
2021/04/01 16:14:24;;;;;;;10.43;6.47;;;28.70;29.70;;;;;;4870564;29;87314;-87
2021/04/01 16:16:50;;;;;;;7.68;6.70;;;28.50;30.00;;;;;;4845300;29;86191;-89
2021/04/01 16:19:16;;;;;;;8.07;6.70;;;28.30;29.80;;;;;;4848357;29;86891;-88
2021/04/01 16:21:41;;;;;;;8.38;6.03;;;28.10;30.30;;;;;;4847833;29;88035;-88
2021/04/01 16:24:09;;;;;;;10.82;6.63;;;28.00;31.00;;;;;;4836096;29;87900;-88
2021/04/01 16:26:35;;;;;;;8.57;6.85;;;27.90;31.00;;;;;;4838196;29;87054;-88
2021/04/01 16:29:03;;;;;;;8.88;6.38;;;27.70;30.40;;;;;;4839414;29;86989;-88
2021/04/01 16:31:30;;;;;;;9.45;6.60;;;27.50;30.00;;;;;;4861645;29;87459;-87
2021/04/01 16:33:58;;;;;;;9.27;6.32;;;27.40;30.40;;;;;;4860477;29;88884;-88
2021/04/01 16:36:28;;;;;;;12.15;6.60;;;27.30;30.90;;;;;;4864084;29;87050;-88
2021/04/01 16:38:55;;;;;;;11.73;6.22;;;27.10;31.40;;;;;;4836910;29;87067;-90
2021/04/01 16:41:25;;;;;;;9.82;6.53;;;27.00;31.50;;;;;;4859437;29;87001;-88
2021/04/01 16:43:51;;;;;;;9.23;6.33;;;26.70;31.30;;;;;;4873825;29;87124;-87
2021/04/01 16:46:19;;;;;;;11.48;6.60;;;26.40;31.40;;;;;;4859599;29;87160;-88
2021/04/01 16:48:47;;;;;;;9.70;6.07;;;26.20;31.50;;;;;;4848551;29;88041;-88
2021/04/01 16:51:13;;;;;;;8.82;6.20;;;26.00;32.40;;;;;;4875262;28;87115;-88
2021/04/01 16:54:01;;;;;;;12.10;5.82;;;25.90;32.80;;;;;;4848239;29;89053;-89
2021/04/01 16:56:29;;;;;;;9.23;6.25;;;25.80;34.20;;;;;;4853014;29;87034;-87
2021/04/01 16:58:58;;;;;;;14.35;7.20;;;25.60;33.20;;;;;;4858858;29;86435;-87
2021/04/01 17:01:24;;;;;;;11.90;8.52;;;25.40;33.30;;;;;;4858115;29;87388;-88
2021/04/01 17:03:51;;;;;;;13.18;8.55;;;25.10;33.10;;;;;;4866798;29;89376;-87
2021/04/01 17:06:16;;;;;;;11.00;6.38;;;24.90;33.50;;;;;;4862520;29;86133;-88
2021/04/01 17:08:43;;;;;;;10.52;6.75;;;24.60;33.50;;;;;;4875031;29;87310;-87
2021/04/01 17:11:11;;;;;;;12.00;6.30;;;24.40;34.00;;;;;;4870301;29;89073;-88
2021/04/01 17:13:36;;;;;;;12.25;6.85;;;24.20;34.20;;;;;;4857313;29;89473;-88
2021/04/01 17:16:02;;;;;;;10.93;6.35;;;23.90;34.50;;;;;;4846880;29;87086;-86
2021/04/01 17:18:32;;;;;;;7.70;5.97;;;23.70;34.70;;;;;;4865048;28;87097;-87
2021/04/01 17:21:01;;;;;;;10.52;6.82;;;23.50;34.90;;;;;;4847918;29;89486;-87
2021/04/01 17:23:35;;;;;;;16.23;7.03;;;23.20;35.80;;;;;;4862103;29;87790;-87
2021/04/01 17:26:01;;;;;;;11.90;6.70;;;23.00;36.60;;;;;;4869588;29;86930;-87
2021/04/01 17:28:29;;;;;;;10.35;6.47;;;22.80;36.60;;;;;;4860174;28;87090;-87
2021/04/01 17:30:54;;;;;;;10.15;5.80;;;22.50;36.80;;;;;;4847066;29;88283;-86
2021/04/01 17:33:22;;;;;;;11.88;7.28;;;22.40;37.50;;;;;;4861861;29;86606;-87
2021/04/01 17:35:48;;;;;;;9.50;7.53;;;22.20;39.00;;;;;;4860357;29;87272;-88
2021/04/01 17:38:14;;;;;;;10.57;7.20;;;21.90;40.00;;;;;;4864190;29;87816;-86
2021/04/01 17:40:40;;;;;;;12.00;7.47;;;21.80;40.50;;;;;;4861834;29;87511;-86